Enter the Airport ICAO Code

Search by Airport or City

Current Weather

RJAA | Narita International Airport

Tokyo, Honshu, Japan

Last Update 23 Minutes Ago

Sky with Few Clouds

Temperature of 14 ºC

Moderate Winds from North

Temperature

14 ºC

Dew Point Temperature

04 ºC

Relative Humidity

51.03 %

Wind Direction

North (020º, Without Significant Variations)

Wind Velocity

22 km/h (12 kt)

Gusts

None

Visibility

Greater than 10 Kilometers

Sea Level Pressure

1017 hPa (Hectopascals)

Layers of Clouds

5% to 30% of Sky Covered from 610 mts (2000 ft) Above Ground Level.

METAR RJAA 202330Z 02012KT 9999 FEW020 14/04 Q1017 NOSIG RMK 1CU020 A3003

Weather Forecast

RJAA | Narita International Airport

Tokyo, Honshu, Japan

Forecast valid for the next 30 Hours

From now on it is expected:

Sky with Few Clouds

Light to Moderate Winds from NorthEast

In 5 to 7 hours it is expected the begining of:

Light to Moderate Winds from SouthEast

In 10 to 12 hours it is expected the begining of:

Light to Moderate Winds from North

In 27 hours it is expected the begining of 3 hours with intermittent periods of:

Light Rain, Mist

Maximum Temperature

No Data

Minimum Temperature

No Data

TAF RJAA 202305Z 2100/2206 03008KT 9999 FEW030 BECMG 2105/2107 12006KT BECMG 2110/2112 01008KT TEMPO 2203/2206 4000 -RA BR